createdAt,value
2023-05-08T00:01:52.173Z,12.32
2023-05-08T00:04:19.773Z,11.90
2023-05-08T00:06:47.622Z,12.98
2023-05-08T00:09:14.021Z,14.27
2023-05-08T00:11:40.333Z,13.32
2023-05-08T00:14:06.736Z,13.48
2023-05-08T00:16:33.153Z,14.38
2023-05-08T00:19:00.177Z,15.10
2023-05-08T00:21:26.741Z,12.88
2023-05-08T00:23:53.738Z,12.52
2023-05-08T00:26:20.984Z,12.32
2023-05-08T00:28:47.592Z,13.63
2023-05-08T00:31:13.924Z,10.88
2023-05-08T00:33:40.463Z,13.68
2023-05-08T00:36:07.098Z,13.07
2023-05-08T00:38:34.950Z,16.65
2023-05-08T00:41:02.911Z,17.20
2023-05-08T00:43:29.550Z,13.40
2023-05-08T00:45:58.157Z,12.68
2023-05-08T00:48:28.130Z,13.15
2023-05-08T00:50:55.121Z,15.25
2023-05-08T00:53:22.878Z,16.60
2023-05-08T00:55:50.974Z,13.10
2023-05-08T00:58:20.234Z,16.10
2023-05-08T01:00:47.253Z,13.93
2023-05-08T01:03:14.505Z,15.77
2023-05-08T01:05:41.029Z,16.10
2023-05-08T01:08:07.343Z,14.60
2023-05-08T01:10:54.922Z,17.65
2023-05-08T01:13:34.118Z,16.92
2023-05-08T01:16:07.391Z,15.80
2023-05-08T01:18:38.162Z,16.45
2023-05-08T01:21:16.339Z,17.83
2023-05-08T01:24:09.868Z,16.38
2023-05-08T01:27:04.857Z,17.23
2023-05-08T01:29:54.855Z,16.80
2023-05-08T01:32:24.578Z,16.40
2023-05-08T01:34:58.915Z,15.57
2023-05-08T01:37:32.344Z,18.20
2023-05-08T01:40:07.440Z,19.13
2023-05-08T01:42:43.892Z,19.70
2023-05-08T01:45:17.520Z,22.60
2023-05-08T01:47:49.687Z,23.25
2023-05-08T01:50:21.730Z,22.23
2023-05-08T01:52:51.355Z,22.50
2023-05-08T01:55:24.058Z,24.65
2023-05-08T01:57:53.911Z,22.45
2023-05-08T02:00:23.340Z,22.98
2023-05-08T02:02:51.746Z,21.02
2023-05-08T02:05:20.828Z,20.10
2023-05-08T02:07:48.782Z,21.55
2023-05-08T02:10:16.964Z,20.90
2023-05-08T02:12:44.186Z,20.02
2023-05-08T02:15:13.502Z,18.85
2023-05-08T02:17:41.128Z,19.42
2023-05-08T02:20:14.069Z,18.42
2023-05-08T02:22:42.855Z,19.17
2023-05-08T02:25:13.674Z,18.27
2023-05-08T02:27:44.658Z,20.75
2023-05-08T02:30:13.873Z,22.55
2023-05-08T02:32:42.060Z,23.33
2023-05-08T02:35:12.591Z,23.90
2023-05-08T02:37:42.123Z,20.83
2023-05-08T02:40:11.032Z,21.55
2023-05-08T02:42:37.644Z,22.05
2023-05-08T02:45:05.078Z,20.75
2023-05-08T02:47:41.950Z,21.80
2023-05-08T02:50:16.398Z,23.77
2023-05-08T02:52:48.283Z,19.65
2023-05-08T02:55:30.825Z,20.60
2023-05-08T02:58:17.196Z,19.17
2023-05-08T03:00:48.702Z,20.52
2023-05-08T03:03:20.885Z,23.42
2023-05-08T03:05:55.670Z,19.98
2023-05-08T03:08:26.924Z,15.40
2023-05-08T03:10:58.485Z,18.77
2023-05-08T03:13:27.364Z,19.63
2023-05-08T03:15:57.082Z,18.88
2023-05-08T03:18:43.497Z,16.70
2023-05-08T03:21:12.641Z,19.02
2023-05-08T03:23:40.307Z,17.80
2023-05-08T03:26:08.215Z,17.25
2023-05-08T03:28:36.411Z,19.27
2023-05-08T03:31:04.911Z,18.77
2023-05-08T03:33:32.747Z,17.90
2023-05-08T03:35:59.363Z,16.75
2023-05-08T03:38:26.464Z,16.48
2023-05-08T03:40:53.044Z,18.63
2023-05-08T03:43:21.140Z,16.52
2023-05-08T03:45:47.575Z,16.92
2023-05-08T03:48:14.703Z,20.38
2023-05-08T03:50:42.027Z,15.02
2023-05-08T03:53:08.354Z,18.17
2023-05-08T03:55:35.714Z,16.13
2023-05-08T03:58:08.102Z,17.60
2023-05-08T04:00:45.293Z,18.88
2023-05-08T04:03:21.266Z,17.08
2023-05-08T04:05:56.507Z,26.17
2023-05-08T04:08:26.889Z,17.05
2023-05-08T04:11:03.802Z,17.50
2023-05-08T04:13:36.604Z,16.98
2023-05-08T04:16:09.204Z,16.15
2023-05-08T04:18:39.482Z,20.95
2023-05-08T04:21:09.323Z,17.25
2023-05-08T04:23:38.482Z,17.25
2023-05-08T04:26:07.461Z,20.23
2023-05-08T04:28:34.258Z,14.45
2023-05-08T04:31:02.327Z,18.25
2023-05-08T04:33:29.241Z,15.27
2023-05-08T04:35:56.014Z,16.20
2023-05-08T04:38:22.364Z,16.73
2023-05-08T04:40:48.649Z,15.25
2023-05-08T04:43:15.635Z,14.65
2023-05-08T04:45:42.054Z,15.43
2023-05-08T04:48:08.508Z,21.60
2023-05-08T04:50:34.869Z,18.17
2023-05-08T04:53:01.153Z,17.45
2023-05-08T04:55:27.442Z,18.13
2023-05-08T04:57:53.740Z,15.30
2023-05-08T05:00:20.928Z,17.13
2023-05-08T05:02:47.265Z,17.00
2023-05-08T05:05:13.775Z,17.98
2023-05-08T05:07:41.385Z,18.77
2023-05-08T05:10:08.332Z,16.15
2023-05-08T05:12:34.642Z,18.63
2023-05-08T05:15:00.981Z,19.10
2023-05-08T05:17:28.058Z,15.45
2023-05-08T05:19:54.504Z,17.10
2023-05-08T05:22:20.798Z,16.63
2023-05-08T05:24:47.068Z,15.73
2023-05-08T05:27:13.367Z,18.00
2023-05-08T05:29:39.851Z,18.60
2023-05-08T05:32:08.476Z,17.08
2023-05-08T05:34:35.838Z,21.88
2023-05-08T05:37:02.161Z,20.48
2023-05-08T05:39:28.504Z,20.23
2023-05-08T05:41:54.769Z,18.83
2023-05-08T05:44:21.032Z,17.95
2023-05-08T05:46:47.382Z,19.02
2023-05-08T05:49:13.695Z,19.52
2023-05-08T05:51:40.579Z,18.50
2023-05-08T05:54:07.242Z,18.17
2023-05-08T05:56:33.539Z,18.77
2023-05-08T05:58:59.977Z,20.15
2023-05-08T06:01:28.250Z,17.95
2023-05-08T06:03:54.610Z,20.73
2023-05-08T06:06:21.330Z,18.02
2023-05-08T06:08:48.271Z,17.85
2023-05-08T06:11:14.559Z,19.02
2023-05-08T06:13:40.924Z,17.88
2023-05-08T06:16:07.829Z,18.88
2023-05-08T06:18:34.201Z,18.23
2023-05-08T06:21:00.567Z,16.67
2023-05-08T06:23:26.900Z,18.75
2023-05-08T06:25:54.061Z,18.65
2023-05-08T06:28:21.766Z,16.88
2023-05-08T06:30:50.931Z,16.90
2023-05-08T06:33:17.362Z,18.50
2023-05-08T06:35:45.962Z,17.58
2023-05-08T06:38:12.461Z,15.88
2023-05-08T06:40:41.618Z,16.67
2023-05-08T06:43:08.605Z,16.40
2023-05-08T06:45:34.961Z,18.13
2023-05-08T06:48:01.411Z,18.55
2023-05-08T06:50:27.768Z,16.48
2023-05-08T06:52:54.100Z,21.40
2023-05-08T06:55:22.335Z,16.27
2023-05-08T06:57:48.687Z,17.05
2023-05-08T07:00:15.992Z,17.45
2023-05-08T07:02:42.432Z,14.32
2023-05-08T07:05:09.414Z,19.95
2023-05-08T07:07:35.741Z,16.00
2023-05-08T07:10:02.580Z,16.00
2023-05-08T07:12:28.902Z,16.88
2023-05-08T07:14:55.990Z,16.00
2023-05-08T07:17:24.945Z,18.70
2023-05-08T07:19:51.306Z,15.38
2023-05-08T07:22:17.733Z,13.88
2023-05-08T07:24:44.047Z,16.42
2023-05-08T07:27:10.354Z,18.67
2023-05-08T07:29:36.891Z,17.23
2023-05-08T07:32:06.877Z,13.88
2023-05-08T07:34:34.001Z,13.18
2023-05-08T07:37:00.321Z,13.45
2023-05-08T07:39:26.686Z,13.30
2023-05-08T07:41:53.041Z,14.48
2023-05-08T07:44:19.402Z,17.15
2023-05-08T07:46:45.739Z,18.75
2023-05-08T07:49:12.103Z,15.93
2023-05-08T07:51:39.479Z,16.52
2023-05-08T07:54:05.963Z,14.05
2023-05-08T07:56:32.272Z,16.33
2023-05-08T07:58:58.574Z,14.20
2023-05-08T08:01:24.981Z,13.68
2023-05-08T08:03:51.348Z,15.82
2023-05-08T08:06:17.855Z,14.35
2023-05-08T08:08:44.903Z,12.85
2023-05-08T08:11:11.396Z,14.48
2023-05-08T08:13:37.682Z,13.07
2023-05-08T08:16:04.592Z,15.57
2023-05-08T08:18:34.549Z,14.35
2023-05-08T08:21:00.993Z,13.55
2023-05-08T08:23:27.340Z,14.45
2023-05-08T08:25:54.301Z,12.88
2023-05-08T08:28:20.734Z,14.90
2023-05-08T08:30:47.068Z,13.30
2023-05-08T08:33:13.484Z,12.50
2023-05-08T08:35:39.839Z,13.75
2023-05-08T08:38:06.150Z,16.05
2023-05-08T08:40:32.864Z,15.60
2023-05-08T08:42:59.850Z,16.30
2023-05-08T08:45:26.122Z,14.15
2023-05-08T08:47:52.683Z,23.20
2023-05-08T08:50:19.753Z,24.00
2023-05-08T08:52:53.427Z,15.05
2023-05-08T08:55:22.592Z,14.95
2023-05-08T08:58:07.089Z,16.33
2023-05-08T09:00:36.892Z,15.80
2023-05-08T09:03:05.733Z,13.68
2023-05-08T09:05:32.556Z,12.60
2023-05-08T09:07:59.418Z,14.40
2023-05-08T09:10:25.833Z,14.93
2023-05-08T09:12:52.592Z,14.50
2023-05-08T09:15:19.713Z,14.15
2023-05-08T09:17:46.184Z,14.63
2023-05-08T09:20:14.853Z,15.93
2023-05-08T09:22:42.590Z,18.10
2023-05-08T09:25:09.948Z,13.38
2023-05-08T09:27:36.311Z,17.15
2023-05-08T09:30:04.412Z,14.93
2023-05-08T09:32:32.679Z,14.10
2023-05-08T09:34:59.949Z,16.98
2023-05-08T09:37:27.478Z,15.73
2023-05-08T09:39:54.130Z,15.23
2023-05-08T09:42:20.527Z,16.55
2023-05-08T09:44:48.820Z,15.73
2023-05-08T09:47:17.158Z,15.40
2023-05-08T09:49:57.508Z,16.23
2023-05-08T09:52:23.919Z,20.40
2023-05-08T09:54:58.037Z,15.10
2023-05-08T09:57:24.422Z,16.10
2023-05-08T09:59:50.871Z,17.00
2023-05-08T10:02:19.445Z,17.60
2023-05-08T10:04:45.840Z,17.75
2023-05-08T10:07:13.258Z,17.73
2023-05-08T10:09:50.444Z,17.75
2023-05-08T10:12:18.311Z,15.95
2023-05-08T10:14:46.560Z,16.75
2023-05-08T10:17:20.716Z,20.77
2023-05-08T10:19:51.519Z,20.70
2023-05-08T10:22:21.361Z,21.48
2023-05-08T10:24:52.589Z,20.38
2023-05-08T10:27:27.142Z,21.60
2023-05-08T10:29:55.947Z,19.70
2023-05-08T10:32:23.872Z,18.73
2023-05-08T10:34:53.361Z,23.48
2023-05-08T10:37:20.811Z,21.92
2023-05-08T10:39:48.721Z,18.48
2023-05-08T10:42:15.097Z,18.05
2023-05-08T10:44:41.527Z,19.48
2023-05-08T10:47:16.630Z,20.85
2023-05-08T10:49:49.176Z,20.75
2023-05-08T10:52:20.351Z,21.88
2023-05-08T10:55:16.862Z,21.40
2023-05-08T10:58:10.073Z,17.70
2023-05-08T11:01:14.446Z,18.90
2023-05-08T11:03:51.418Z,26.13
2023-05-08T11:06:38.600Z,23.13
2023-05-08T11:09:05.068Z,24.83
2023-05-08T11:11:37.736Z,19.38
2023-05-08T11:14:14.683Z,23.30
2023-05-08T11:17:03.156Z,21.65
2023-05-08T11:19:30.003Z,18.73
2023-05-08T11:22:20.945Z,22.73
2023-05-08T11:24:50.291Z,17.95
2023-05-08T11:27:17.265Z,19.63
2023-05-08T11:29:44.375Z,21.52
2023-05-08T11:32:10.795Z,24.42
2023-05-08T11:34:47.985Z,20.42
2023-05-08T11:37:18.054Z,20.77
2023-05-08T11:39:44.518Z,19.50
2023-05-08T11:42:36.399Z,19.42
2023-05-08T11:45:05.529Z,21.42
2023-05-08T11:47:37.901Z,21.83
2023-05-08T11:50:05.616Z,27.17
2023-05-08T11:52:32.937Z,25.73
2023-05-08T11:55:02.742Z,22.65
2023-05-08T11:57:30.894Z,20.88
2023-05-08T11:59:57.954Z,19.27
2023-05-08T12:02:35.648Z,20.23
2023-05-08T12:05:02.571Z,21.88
2023-05-08T12:07:29.183Z,20.48
2023-05-08T12:09:55.589Z,19.73
2023-05-08T12:12:21.920Z,21.67
2023-05-08T12:14:50.208Z,18.77
2023-05-08T12:17:18.210Z,18.98
2023-05-08T12:19:44.580Z,20.60
2023-05-08T12:22:10.982Z,16.83
2023-05-08T12:24:38.775Z,18.08
2023-05-08T12:27:05.340Z,18.10
2023-05-08T12:29:35.798Z,18.90
2023-05-08T12:32:02.531Z,21.42
2023-05-08T12:34:29.679Z,20.17
2023-05-08T12:37:02.832Z,25.27
2023-05-08T12:39:35.621Z,20.33
2023-05-08T12:42:01.941Z,17.77
2023-05-08T12:44:29.985Z,19.48
2023-05-08T12:46:57.723Z,24.42
2023-05-08T12:49:26.122Z,19.90
2023-05-08T12:52:00.335Z,16.88
2023-05-08T12:54:32.452Z,19.35
2023-05-08T12:56:58.743Z,19.92
2023-05-08T12:59:28.612Z,18.95
2023-05-08T13:01:55.079Z,18.92
2023-05-08T13:04:21.476Z,18.02
2023-05-08T13:06:54.629Z,16.63
2023-05-08T13:09:22.383Z,17.33
2023-05-08T13:11:49.237Z,19.10
2023-05-08T13:14:15.687Z,18.33
2023-05-08T13:16:42.933Z,15.55
2023-05-08T13:19:09.273Z,16.70
2023-05-08T13:21:35.655Z,18.90
2023-05-08T13:24:02.833Z,18.67
2023-05-08T13:26:29.185Z,19.85
2023-05-08T13:28:56.621Z,20.73
2023-05-08T13:31:23.343Z,22.23
2023-05-08T13:33:49.692Z,20.30
2023-05-08T13:36:15.997Z,21.83
2023-05-08T13:38:42.268Z,22.40
2023-05-08T13:41:09.233Z,23.52
2023-05-08T13:43:36.093Z,22.20
2023-05-08T13:46:04.159Z,24.40
2023-05-08T13:48:31.797Z,23.48
2023-05-08T13:50:58.113Z,23.55
2023-05-08T13:53:24.419Z,24.67
2023-05-08T13:55:50.841Z,22.75
2023-05-08T13:58:17.827Z,22.38
2023-05-08T14:00:44.704Z,25.02
2023-05-08T14:03:11.054Z,28.20
2023-05-08T14:05:37.405Z,24.52
2023-05-08T14:08:04.070Z,22.08
2023-05-08T14:10:30.399Z,23.58
2023-05-08T14:12:56.837Z,23.33
2023-05-08T14:15:27.007Z,24.73
2023-05-08T14:18:01.045Z,23.58
2023-05-08T14:20:27.426Z,26.17
2023-05-08T14:22:54.052Z,25.02
2023-05-08T14:25:20.502Z,25.58
2023-05-08T14:27:46.785Z,24.80
2023-05-08T14:30:14.312Z,27.52
2023-05-08T14:32:41.514Z,22.17
2023-05-08T14:35:09.499Z,24.45
2023-05-08T14:37:35.874Z,24.67
2023-05-08T14:40:02.195Z,18.00
2023-05-08T14:42:28.532Z,21.50
2023-05-08T14:44:55.631Z,26.10
2023-05-08T14:47:22.905Z,22.63
2023-05-08T14:49:49.947Z,20.92
2023-05-08T14:52:16.282Z,20.02
2023-05-08T14:54:43.063Z,16.73
2023-05-08T14:57:09.575Z,18.30
2023-05-08T14:59:35.878Z,19.98
2023-05-08T15:02:02.280Z,17.13
2023-05-08T15:04:28.814Z,15.70
2023-05-08T15:06:55.762Z,18.13
2023-05-08T15:09:22.183Z,16.95
2023-05-08T15:11:48.519Z,21.08
2023-05-08T15:14:15.215Z,17.23
2023-05-08T15:16:41.594Z,19.80
2023-05-08T15:19:08.621Z,18.17
2023-05-08T15:21:35.019Z,20.45
2023-05-08T15:24:01.966Z,20.20
2023-05-08T15:26:28.287Z,15.63
2023-05-08T15:28:54.600Z,16.42
2023-05-08T15:31:21.515Z,16.38
2023-05-08T15:33:47.857Z,16.63
2023-05-08T15:36:14.510Z,15.32
2023-05-08T15:38:42.033Z,15.77
2023-05-08T15:41:14.320Z,16.58
2023-05-08T15:43:41.661Z,15.00
2023-05-08T15:46:07.982Z,15.80
2023-05-08T15:48:34.628Z,15.35
2023-05-08T15:51:01.101Z,18.83
2023-05-08T15:53:27.473Z,16.98
2023-05-08T15:55:54.874Z,18.58
2023-05-08T15:58:21.827Z,18.73
2023-05-08T16:00:48.146Z,14.80
2023-05-08T16:03:14.630Z,16.98
2023-05-08T16:05:41.281Z,15.85
2023-05-08T16:08:11.428Z,15.68
2023-05-08T16:10:37.903Z,14.15
2023-05-08T16:13:05.068Z,14.93
2023-05-08T16:15:32.053Z,16.10
2023-05-08T16:17:58.450Z,17.40
2023-05-08T16:20:25.171Z,16.73
2023-05-08T16:22:53.682Z,19.65
2023-05-08T16:25:20.128Z,18.92
2023-05-08T16:27:46.458Z,18.20
2023-05-08T16:30:13.244Z,14.60
2023-05-08T16:32:40.450Z,16.08
2023-05-08T16:35:07.511Z,16.52
2023-05-08T16:37:34.363Z,15.90
2023-05-08T16:40:02.254Z,15.65
2023-05-08T16:42:28.685Z,17.63
2023-05-08T16:44:54.993Z,15.65
2023-05-08T16:47:21.355Z,15.70
2023-05-08T16:49:48.304Z,17.65
2023-05-08T16:52:14.605Z,16.65
2023-05-08T16:54:40.892Z,18.95
2023-05-08T16:57:07.334Z,17.13
2023-05-08T16:59:33.725Z,18.25
2023-05-08T17:02:00.069Z,19.85
2023-05-08T17:04:26.675Z,17.98
2023-05-08T17:06:53.615Z,17.38
2023-05-08T17:09:19.976Z,17.80
2023-05-08T17:11:46.256Z,17.50
2023-05-08T17:14:12.561Z,18.45
2023-05-08T17:16:38.927Z,20.30
2023-05-08T17:19:05.297Z,19.80
2023-05-08T17:21:33.810Z,20.25
2023-05-08T17:24:03.832Z,19.88
2023-05-08T17:26:32.194Z,19.58
2023-05-08T17:28:58.663Z,21.55
2023-05-08T17:31:25.060Z,19.20
2023-05-08T17:33:51.346Z,19.33
2023-05-08T17:36:17.715Z,21.10
2023-05-08T17:38:45.270Z,20.67
2023-05-08T17:41:12.475Z,19.52
2023-05-08T17:43:38.889Z,23.08
2023-05-08T17:46:05.422Z,20.05
2023-05-08T17:48:32.393Z,20.92
2023-05-08T17:50:58.779Z,20.48
2023-05-08T17:53:25.132Z,20.65
2023-05-08T17:55:54.341Z,20.75
2023-05-08T17:58:21.336Z,24.35
2023-05-08T18:00:47.728Z,20.65
2023-05-08T18:03:14.162Z,20.02
2023-05-08T18:05:40.554Z,20.98
2023-05-08T18:08:06.863Z,18.67
2023-05-08T18:10:34.697Z,23.88
2023-05-08T18:13:01.070Z,22.02
2023-05-08T18:15:28.588Z,18.75
2023-05-08T18:17:54.968Z,21.25
2023-05-08T18:20:21.343Z,22.35
2023-05-08T18:22:47.705Z,22.55
2023-05-08T18:25:14.110Z,26.20
2023-05-08T18:27:41.421Z,22.85
2023-05-08T18:30:08.712Z,24.77
2023-05-08T18:32:36.058Z,22.83
2023-05-08T18:35:02.473Z,25.23
2023-05-08T18:37:28.863Z,21.27
2023-05-08T18:39:55.196Z,22.27
2023-05-08T18:42:21.598Z,23.98
2023-05-08T18:44:47.936Z,23.33
2023-05-08T18:47:14.301Z,22.58
2023-05-08T18:49:41.323Z,24.27
2023-05-08T18:52:07.667Z,24.33
2023-05-08T18:54:33.985Z,22.67
2023-05-08T18:57:00.292Z,21.90
2023-05-08T18:59:26.641Z,26.85
2023-05-08T19:01:53.011Z,22.45
2023-05-08T19:04:19.386Z,23.52
2023-05-08T19:06:46.755Z,24.42
2023-05-08T19:09:13.107Z,23.60
2023-05-08T19:11:40.369Z,25.15
2023-05-08T19:14:06.656Z,23.17
2023-05-08T19:16:33.025Z,21.98
2023-05-08T19:18:59.357Z,20.90
2023-05-08T19:21:25.717Z,23.13
2023-05-08T19:23:52.640Z,23.92
2023-05-08T19:26:18.998Z,23.52
2023-05-08T19:28:45.325Z,22.75
2023-05-08T19:31:11.711Z,24.20
2023-05-08T19:33:38.092Z,22.38
2023-05-08T19:36:04.504Z,25.48
2023-05-08T19:38:30.806Z,24.73
2023-05-08T19:40:58.108Z,27.45
2023-05-08T19:43:25.112Z,29.38
2023-05-08T19:45:51.520Z,24.50
2023-05-08T19:48:19.244Z,28.88
2023-05-08T19:50:45.757Z,27.27
2023-05-08T19:53:12.086Z,24.50
2023-05-08T19:55:38.359Z,29.45
2023-05-08T19:58:05.356Z,26.27
2023-05-08T20:00:31.726Z,27.75
2023-05-08T20:02:59.938Z,30.88
2023-05-08T20:05:26.308Z,28.60
2023-05-08T20:07:52.627Z,30.13
2023-05-08T20:10:18.987Z,33.08
2023-05-08T20:12:45.415Z,32.67
2023-05-08T20:15:12.670Z,29.90
2023-05-08T20:17:39.155Z,30.25
2023-05-08T20:20:06.922Z,29.83
2023-05-08T20:22:33.244Z,28.70
2023-05-08T20:25:01.063Z,30.27
2023-05-08T20:27:28.434Z,28.63
2023-05-08T20:29:54.742Z,30.00
2023-05-08T20:32:21.746Z,28.92
2023-05-08T20:34:48.094Z,27.50
2023-05-08T20:37:15.354Z,28.38
2023-05-08T20:39:41.758Z,29.60
2023-05-08T20:42:08.125Z,31.02
2023-05-08T20:44:34.422Z,26.52
2023-05-08T20:47:00.768Z,30.08
2023-05-08T20:49:27.768Z,29.42
2023-05-08T20:51:54.076Z,27.92
2023-05-08T20:54:20.943Z,24.80
2023-05-08T20:56:47.247Z,27.27
2023-05-08T20:59:15.699Z,24.95
2023-05-08T21:01:42.095Z,26.88
2023-05-08T21:04:08.486Z,28.52
2023-05-08T21:06:35.463Z,27.88
2023-05-08T21:09:01.861Z,26.80
2023-05-08T21:11:28.159Z,25.98
2023-05-08T21:13:54.480Z,28.88
2023-05-08T21:16:20.819Z,31.08
2023-05-08T21:18:47.136Z,28.60
2023-05-08T21:21:17.209Z,30.33
2023-05-08T21:23:44.180Z,28.48
2023-05-08T21:26:10.505Z,29.38
2023-05-08T21:28:36.829Z,34.17
2023-05-08T21:31:03.261Z,29.45
2023-05-08T21:33:29.633Z,30.30
2023-05-08T21:35:55.912Z,28.60
2023-05-08T21:38:22.256Z,30.00
2023-05-08T21:40:49.234Z,30.83
2023-05-08T21:43:15.522Z,30.73
2023-05-08T21:45:41.817Z,32.03
2023-05-08T21:48:08.134Z,34.58
2023-05-08T21:50:34.469Z,30.58
2023-05-08T21:53:02.568Z,30.52
2023-05-08T21:55:30.899Z,31.88
2023-05-08T21:57:59.190Z,31.75
2023-05-08T22:00:26.086Z,33.03
2023-05-08T22:02:52.441Z,28.35
2023-05-08T22:05:18.852Z,30.25
2023-05-08T22:07:45.099Z,31.92
2023-05-08T22:10:13.069Z,34.78
2023-05-08T22:12:39.557Z,35.15
2023-05-08T22:15:17.943Z,34.42
2023-05-08T22:17:49.848Z,35.00
2023-05-08T22:20:16.295Z,31.20
2023-05-08T22:22:42.609Z,30.35
2023-05-08T22:25:09.238Z,32.20
2023-05-08T22:27:35.675Z,30.80
2023-05-08T22:30:02.372Z,32.72
2023-05-08T22:32:29.401Z,30.65
2023-05-08T22:34:55.772Z,29.67
2023-05-08T22:37:22.127Z,30.50
2023-05-08T22:39:48.463Z,33.10
2023-05-08T22:42:15.295Z,31.02
2023-05-08T22:44:42.085Z,30.13
2023-05-08T22:47:09.513Z,30.33
2023-05-08T22:49:39.217Z,29.42
2023-05-08T23:00:43.365Z,32.33
2023-05-08T23:03:09.644Z,32.78
2023-05-08T23:05:36.078Z,34.80
2023-05-08T23:08:02.502Z,32.40
2023-05-08T23:10:28.828Z,35.38
2023-05-08T23:12:55.172Z,38.05
2023-05-08T23:15:22.104Z,35.75
2023-05-08T23:17:48.792Z,34.00
2023-05-08T23:20:15.424Z,32.65
2023-05-08T23:22:41.783Z,31.50
2023-05-08T23:25:10.136Z,32.22
2023-05-08T23:27:36.452Z,37.58
2023-05-08T23:30:03.088Z,34.45
2023-05-08T23:32:30.092Z,43.53
2023-05-08T23:34:56.426Z,35.83
2023-05-08T23:37:22.703Z,36.95
2023-05-08T23:39:49.024Z,35.70
2023-05-08T23:42:15.335Z,36.10
2023-05-08T23:44:41.734Z,35.05
2023-05-08T23:47:08.037Z,36.05
2023-05-08T23:49:35.150Z,37.95
2023-05-08T23:52:01.540Z,34.53
2023-05-08T23:54:27.881Z,36.33
2023-05-08T23:56:54.177Z,36.63
2023-05-08T23:59:20.525Z,33.60
